Time;durP1;ratioP1;P1;durP2;ratioP2;P2;SDS_P1;SDS_P2;PMS_P1;PMS_P2;Temp;Humidity;BMP_temperature;BMP_pressure;BME280_temperature;BME280_humidity;BME280_pressure;Samples;Min_cycle;Max_cycle;Signal;HPM_P1;HPM_P2
2022/06/05 00:01:18;;;;;;;6.53;5.93;;;21.80;99.90;;;22.58;nan;100658.88;4974456;28;20702;-66
2022/06/05 00:04:09;;;;;;;6.67;6.03;;;21.80;99.90;;;22.57;nan;100665.25;4960729;28;20659;-66
2022/06/05 00:06:45;;;;;;;8.00;7.20;;;21.80;99.90;;;22.58;nan;100658.88;4954489;28;20672;-66
2022/06/05 00:09:57;;;;;;;12.53;6.33;;;21.90;99.90;;;22.55;nan;100662.78;4955499;28;20628;-65
2022/06/05 00:12:40;;;;;;;7.33;6.60;;;21.90;99.90;;;22.54;nan;100671.75;4956967;28;20646;-66
2022/06/05 00:15:09;;;;;;;7.00;6.30;;;21.80;99.90;;;22.54;nan;100684.22;4975739;28;20662;-65
2022/06/05 00:17:36;;;;;;;7.23;5.83;;;21.80;99.90;;;22.59;nan;100697.81;4975327;28;20638;-65
2022/06/05 00:20:07;;;;;;;6.90;6.20;;;21.90;99.90;;;22.56;nan;100698.97;4969398;28;20635;-68
2022/06/05 00:22:33;;;;;;;7.07;6.20;;;21.90;99.90;;;22.66;nan;100706.72;4972608;28;20627;-66
2022/06/05 00:25:01;;;;;;;6.77;6.00;;;21.90;99.90;;;22.67;nan;100717.16;4972932;28;21256;-67
2022/06/05 00:27:55;;;;;;;6.50;5.90;;;21.90;99.90;;;22.62;nan;100719.53;4973084;28;20667;-66
2022/06/05 00:30:58;;;;;;;6.50;5.90;;;21.90;99.90;;;22.60;nan;100721.56;4972271;28;20629;-67
2022/06/05 00:33:41;;;;;;;7.00;5.60;;;21.90;99.90;;;22.62;nan;100714.22;4972211;28;20623;-66
2022/06/05 00:36:41;;;;;;;6.10;5.50;;;21.90;99.90;;;22.60;nan;100712.75;4972808;28;20701;-63
2022/06/05 00:39:15;;;;;;;6.23;5.63;;;21.90;99.90;;;22.59;nan;100713.78;4973223;28;20599;-65
2022/06/05 00:42:05;;;;;;;5.67;5.17;;;21.80;99.90;;;22.56;nan;100700.81;4972430;28;20666;-66
2022/06/05 00:44:49;;;;;;;9.60;5.83;;;21.80;99.90;;;22.53;nan;100707.31;4968336;28;20643;-68
2022/06/05 00:47:23;;;;;;;6.00;5.40;;;21.80;99.90;;;22.46;nan;100714.41;4951820;29;20722;-65
2022/06/05 00:50:20;;;;;;;6.63;6.00;;;21.70;99.90;;;22.43;nan;100698.81;4965776;28;21180;-68
2022/06/05 00:52:53;;;;;;;6.27;5.57;;;21.70;99.90;;;22.42;nan;100690.00;4970862;28;20761;-64
2022/06/05 00:55:22;;;;;;;7.37;6.67;;;21.70;99.90;;;22.41;nan;100682.22;4972217;28;21263;-68
2022/06/05 00:57:50;;;;;;;5.70;5.20;;;21.70;99.90;;;22.40;nan;100673.41;4970744;28;20635;-64
2022/06/05 01:00:32;;;;;;;7.00;6.30;;;21.70;99.90;;;22.32;nan;100660.22;4971910;28;20623;-68
2022/06/05 01:03:04;;;;;;;6.67;6.00;;;21.60;99.90;;;22.20;nan;100639.63;4972189;28;20640;-66
2022/06/05 01:05:31;;;;;;;9.80;6.90;;;21.60;99.90;;;22.11;nan;100620.28;4971160;28;21263;-65
2022/06/05 01:07:59;;;;;;;7.77;6.30;;;21.50;99.90;;;22.10;nan;100612.53;4971392;28;20615;-66
2022/06/05 01:10:41;;;;;;;7.60;6.70;;;21.40;99.90;;;22.16;nan;100599.31;4971791;28;20628;-66
2022/06/05 01:13:21;;;;;;;7.13;6.37;;;21.50;99.90;;;21.99;nan;100583.75;4970939;28;20640;-66
2022/06/05 01:16:05;;;;;;;7.00;6.30;;;21.40;99.90;;;22.12;nan;100592.72;4953473;28;20660;-66
2022/06/05 01:19:06;;;;;;;8.57;7.70;;;21.50;99.90;;;22.06;nan;100598.75;4951866;28;20671;-64
2022/06/05 01:21:48;;;;;;;7.60;6.50;;;21.40;99.90;;;22.07;nan;100604.91;4969471;28;21284;-66
2022/06/05 01:25:13;;;;;;;10.00;7.07;;;21.40;99.90;;;22.04;nan;100600.78;4971178;28;21248;-64
2022/06/05 01:27:44;;;;;;;8.90;8.00;;;21.40;99.90;;;22.07;nan;100587.13;4972468;28;20678;-65
2022/06/05 01:30:16;;;;;;;9.23;8.23;;;21.40;99.90;;;22.13;nan;100575.75;4971695;28;20628;-65
2022/06/05 01:32:59;;;;;;;8.40;7.60;;;21.40;99.90;;;22.06;nan;100566.06;4971403;28;20629;-66
2022/06/05 01:35:52;;;;;;;8.43;7.60;;;21.40;99.90;;;22.11;nan;100553.03;4971376;28;21022;-67
2022/06/05 01:38:59;;;;;;;8.93;8.03;;;21.50;99.90;;;22.04;nan;100558.25;4960169;28;20640;-67
2022/06/05 01:41:44;;;;;;;7.80;7.00;;;21.40;99.90;;;21.93;nan;100579.19;4970489;28;20641;-65
2022/06/05 01:44:20;;;;;;;8.13;7.30;;;21.20;99.90;;;21.90;nan;100596.31;4971515;28;20655;-66
2022/06/05 01:46:49;;;;;;;9.60;7.50;;;21.20;99.90;;;21.88;nan;100598.31;4970960;28;20671;-67
2022/06/05 01:49:23;;;;;;;8.63;7.57;;;21.20;99.90;;;21.86;nan;100599.50;4971235;28;20627;-66
2022/06/05 01:51:59;;;;;;;8.63;7.30;;;21.20;99.90;;;21.88;nan;100590.34;4964213;28;20627;-65
2022/06/05 01:54:45;;;;;;;7.20;6.50;;;21.20;99.90;;;21.91;nan;100592.66;4968905;28;20655;-63
2022/06/05 01:57:16;;;;;;;9.03;7.30;;;21.20;99.90;;;21.92;nan;100580.19;4970492;28;20622;-63
2022/06/05 01:59:47;;;;;;;7.57;6.80;;;21.30;99.90;;;21.91;nan;100570.56;4969592;28;20681;-65
2022/06/05 02:02:21;;;;;;;6.40;5.77;;;21.20;99.90;;;21.91;nan;100552.81;4970560;28;20993;-64
2022/06/05 02:05:08;;;;;;;8.63;7.73;;;21.20;99.90;;;21.88;nan;100533.75;4973947;28;20653;-66
2022/06/05 02:07:52;;;;;;;7.20;6.57;;;21.20;99.90;;;21.93;nan;100518.09;4971558;28;21326;-65
2022/06/05 02:10:30;;;;;;;8.93;6.50;;;21.20;99.90;;;21.84;nan;100504.09;4956701;28;20667;-66
2022/06/05 02:13:00;;;;;;;8.40;6.97;;;21.20;99.90;;;21.84;nan;100480.19;4961953;28;20704;-65
2022/06/05 02:15:29;;;;;;;8.10;7.30;;;21.20;99.90;;;21.76;nan;100450.22;4967643;28;20685;-64
2022/06/05 02:17:58;;;;;;;8.20;7.30;;;21.10;99.90;;;21.71;nan;100421.56;4940610;29;21204;-65
2022/06/05 02:20:26;;;;;;;8.10;7.30;;;21.00;99.90;;;21.69;nan;100409.47;4966411;28;20666;-65
2022/06/05 02:22:54;;;;;;;8.83;7.93;;;21.00;99.90;;;21.70;nan;100376.63;4968694;28;20643;-66
2022/06/05 02:25:25;;;;;;;8.33;7.13;;;21.10;99.90;;;21.68;nan;100352.88;4956971;28;20674;-67
2022/06/05 02:27:59;;;;;;;8.40;7.60;;;21.10;99.90;;;21.64;nan;100323.25;4976690;28;20681;-65
2022/06/05 02:31:18;;;;;;;9.10;6.87;;;21.00;99.90;;;21.56;nan;100311.94;4976586;28;20653;-65
2022/06/05 02:34:26;;;;;;;7.97;6.60;;;20.90;99.90;;;21.48;nan;100307.56;4967466;28;20651;-65
2022/06/05 02:37:17;;;;;;;7.57;6.57;;;20.90;99.90;;;21.50;nan;100300.25;4975013;28;20655;-65
2022/06/05 02:40:11;;;;;;;9.27;7.60;;;20.90;99.90;;;21.44;nan;100298.34;4977918;28;20633;-67
2022/06/05 02:42:50;;;;;;;9.13;7.63;;;20.80;99.90;;;21.40;nan;100275.81;4976051;28;20630;-65
2022/06/05 02:46:08;;;;;;;8.17;6.90;;;20.80;99.90;;;21.31;nan;100263.69;4975611;28;20662;-65
2022/06/05 02:48:48;;;;;;;8.37;6.73;;;20.80;99.90;;;21.20;nan;100253.56;4975852;28;20675;-65
2022/06/05 02:51:22;;;;;;;7.80;6.63;;;20.60;99.90;;;21.20;nan;100253.56;4974844;28;21199;-66
2022/06/05 02:53:57;;;;;;;9.27;8.07;;;20.60;99.90;;;21.11;nan;100278.56;4975633;28;20995;-66
2022/06/05 02:56:26;;;;;;;8.57;6.93;;;20.50;99.90;;;20.99;nan;100303.91;4975424;28;21044;-65
2022/06/05 02:58:56;;;;;;;8.83;7.87;;;20.30;99.90;;;21.05;nan;100310.31;4976766;28;20630;-64
2022/06/05 03:04:10;;;;;;;9.00;8.10;;;20.50;99.90;;;21.19;nan;100293.56;4976403;28;20670;-66
2022/06/05 03:06:39;;;;;;;9.87;8.70;;;20.60;99.90;;;21.21;nan;100281.72;4952201;28;20717;-65
2022/06/05 03:09:08;;;;;;;10.00;7.67;;;20.60;99.90;;;21.20;nan;100295.19;4975288;28;21024;-64
2022/06/05 03:11:39;;;;;;;10.50;8.00;;;20.60;99.90;;;21.27;nan;100322.63;4977115;28;20626;-65
2022/06/05 03:14:06;;;;;;;8.30;7.20;;;20.70;99.90;;;21.26;nan;100345.69;4966261;28;21237;-66
2022/06/05 03:16:33;;;;;;;7.07;6.37;;;20.60;99.90;;;21.14;nan;100363.09;4966519;28;20642;-67
2022/06/05 03:19:01;;;;;;;8.10;7.30;;;20.60;99.90;;;21.25;nan;100385.69;4967837;28;20638;-64
2022/06/05 03:21:33;;;;;;;10.17;8.03;;;20.60;99.90;;;21.25;nan;100381.19;4973130;28;20998;-64
2022/06/05 03:24:01;;;;;;;8.43;7.63;;;20.60;99.90;;;21.30;nan;100408.00;4965399;28;21265;-65
2022/06/05 03:26:29;;;;;;;7.83;7.03;;;20.70;99.90;;;21.29;nan;100427.59;4971799;28;20677;-66
2022/06/05 03:28:56;;;;;;;7.00;6.40;;;20.70;99.90;;;21.30;nan;100442.50;4973707;28;20642;-64
2022/06/05 03:31:23;;;;;;;7.13;6.47;;;20.70;99.90;;;21.32;nan;100463.53;4973730;28;20639;-65
2022/06/05 03:33:50;;;;;;;8.07;6.50;;;20.70;99.90;;;21.38;nan;100476.09;4974413;28;20655;-66
2022/06/05 03:36:18;;;;;;;9.20;7.30;;;20.80;99.90;;;21.42;nan;100487.97;4972617;28;20623;-65
2022/06/05 03:38:45;;;;;;;6.90;6.30;;;20.70;99.90;;;21.42;nan;100491.44;4973610;28;20631;-64
2022/06/05 03:41:16;;;;;;;8.23;7.10;;;20.70;99.90;;;21.44;nan;100492.09;4973559;28;20623;-65
2022/06/05 03:43:44;;;;;;;7.67;6.83;;;20.70;99.90;;;21.45;nan;100496.41;4963059;28;20656;-65
2022/06/05 03:46:15;;;;;;;7.73;6.37;;;20.80;99.90;;;21.42;nan;100501.25;4968086;28;21276;-65
2022/06/05 03:48:43;;;;;;;6.93;6.27;;;20.80;99.90;;;21.42;nan;100506.56;4970947;28;20614;-65
2022/06/05 03:51:18;;;;;;;7.17;6.33;;;20.80;99.90;;;21.43;nan;100524.13;4973694;28;20634;-65
2022/06/05 03:53:46;;;;;;;9.80;6.80;;;20.70;99.90;;;21.30;nan;100540.69;4972017;28;20738;-64
2022/06/05 03:56:17;;;;;;;6.57;5.63;;;20.70;99.90;;;21.11;nan;100561.59;4962995;28;20666;-67
2022/06/05 03:58:45;;;;;;;7.70;5.97;;;20.60;99.90;;;21.10;nan;100581.19;4969551;28;20635;-67
2022/06/05 04:01:16;;;;;;;9.37;7.80;;;20.50;99.90;;;21.03;nan;100598.81;4972697;28;20635;-64
2022/06/05 04:03:44;;;;;;;11.70;7.73;;;20.40;99.90;;;20.90;nan;100596.72;4971762;28;20646;-65
2022/06/05 04:06:19;;;;;;;9.00;8.10;;;20.30;99.90;;;20.96;nan;100595.19;4972214;28;20766;-64
2022/06/05 04:08:46;;;;;;;9.23;8.27;;;20.30;99.90;;;20.92;nan;100602.69;4971780;28;20650;-65
2022/06/05 04:11:18;;;;;;;10.27;8.97;;;20.30;99.90;;;20.85;nan;100588.47;4972447;28;20984;-66
2022/06/05 04:13:46;;;;;;;10.50;8.27;;;20.20;99.90;;;20.83;nan;100601.91;4962771;28;20667;-65
2022/06/05 04:16:21;;;;;;;10.43;8.97;;;20.20;99.90;;;20.84;nan;100595.63;4963621;28;20673;-64
2022/06/05 04:18:50;;;;;;;13.40;8.67;;;20.20;99.90;;;20.86;nan;100598.09;4964758;28;20619;-64
2022/06/05 04:21:27;;;;;;;13.23;10.33;;;20.20;99.90;;;20.83;nan;100598.44;4970735;28;20651;-64
2022/06/05 04:23:56;;;;;;;11.80;10.10;;;20.20;99.90;;;20.79;nan;100600.63;4973190;28;20650;-64
2022/06/05 04:26:27;;;;;;;10.63;9.23;;;20.20;99.90;;;20.88;nan;100602.22;4987581;23;20695;-67
2022/06/05 04:28:55;;;;;;;15.93;8.30;;;20.30;99.90;;;20.81;nan;100598.59;4970128;28;21039;-67
2022/06/05 04:31:31;;;;;;;11.93;9.17;;;20.20;99.90;;;20.74;nan;100588.91;4972555;28;21136;-66
2022/06/05 04:34:02;;;;;;;13.20;8.70;;;20.10;99.90;;;20.54;nan;100580.56;4972034;28;20713;-67
2022/06/05 04:36:30;;;;;;;10.27;7.37;;;19.90;99.90;;;20.45;nan;100588.75;4972651;28;21073;-67
2022/06/05 04:38:57;;;;;;;9.33;7.43;;;19.90;99.90;;;20.46;nan;100593.88;4957312;28;20651;-67
2022/06/05 04:41:25;;;;;;;10.23;7.40;;;19.80;99.90;;;20.33;nan;100585.69;4952408;28;20640;-67
2022/06/05 04:43:54;;;;;;;13.77;9.07;;;19.70;99.90;;;20.35;nan;100583.69;4959069;28;20643;-67
2022/06/05 04:46:23;;;;;;;16.77;8.50;;;19.80;99.90;;;20.31;nan;100565.66;4954577;28;20675;-66
2022/06/05 04:48:50;;;;;;;11.23;8.30;;;19.70;99.90;;;20.40;nan;100546.84;4952039;28;20674;-67
2022/06/05 04:51:18;;;;;;;10.97;8.60;;;19.80;99.90;;;20.43;nan;100541.22;4961197;28;21248;-66
2022/06/05 04:53:48;;;;;;;12.40;9.30;;;19.90;99.90;;;20.44;nan;100536.75;4964678;28;20620;-67
2022/06/05 04:56:23;;;;;;;10.00;8.53;;;19.80;99.90;;;20.47;nan;100534.56;4971478;28;20695;-67
2022/06/05 04:58:51;;;;;;;10.63;8.53;;;19.80;99.90;;;20.48;nan;100530.94;4958608;28;20639;-67
2022/06/05 05:01:25;;;;;;;11.97;8.60;;;19.90;99.90;;;20.52;nan;100542.00;4972491;28;20643;-67
2022/06/05 05:03:59;;;;;;;12.13;9.03;;;19.90;99.90;;;20.51;nan;100569.47;4970772;28;20638;-67
2022/06/05 05:06:28;;;;;;;11.00;8.73;;;19.90;99.90;;;20.59;nan;100557.00;4971428;28;20663;-66
2022/06/05 05:08:55;;;;;;;15.20;9.40;;;20.00;99.90;;;20.65;nan;100552.84;4972944;28;20623;-67
2022/06/05 05:11:23;;;;;;;13.53;9.47;;;20.00;99.90;;;20.75;nan;100542.81;4971725;28;20631;-65
2022/06/05 05:13:52;;;;;;;11.47;9.03;;;20.10;99.90;;;20.76;nan;100541.81;4960287;28;21035;-66
2022/06/05 05:16:19;;;;;;;12.20;9.03;;;20.10;99.90;;;20.79;nan;100530.84;4956583;28;20659;-67
2022/06/05 05:18:46;;;;;;;11.67;9.40;;;20.20;99.90;;;20.84;nan;100517.88;4971530;28;20669;-67
2022/06/05 05:21:16;;;;;;;10.30;9.00;;;20.20;99.90;;;20.82;nan;100519.88;4971179;28;20627;-65
2022/06/05 05:23:46;;;;;;;10.90;8.80;;;20.20;99.90;;;20.87;nan;100517.50;4972916;28;20943;-67
2022/06/05 05:26:22;;;;;;;15.30;9.60;;;20.30;99.90;;;20.93;nan;100503.56;4969309;28;21259;-64
2022/06/05 05:28:50;;;;;;;13.17;9.70;;;20.30;99.90;;;20.88;nan;100497.94;4971255;28;21228;-67
2022/06/05 05:31:30;;;;;;;16.37;11.20;;;20.30;99.90;;;20.95;nan;100488.28;4971739;28;20635;-67
2022/06/05 05:33:59;;;;;;;13.30;10.20;;;20.30;99.90;;;20.94;nan;100483.97;4970114;28;20695;-67
2022/06/05 05:36:28;;;;;;;12.00;10.47;;;20.30;99.90;;;20.94;nan;100475.19;4969642;28;20651;-67
2022/06/05 05:44:40;;;;;;;13.80;10.20;;;20.30;99.90;;;20.97;nan;100473.00;4960585;28;20640;-67
2022/06/05 05:47:15;;;;;;;13.97;9.73;;;20.30;99.90;;;21.03;nan;100480.28;4951639;28;20663;-67
2022/06/05 05:49:43;;;;;;;11.67;9.73;;;20.40;99.90;;;21.09;nan;100466.28;4962270;28;20778;-67
2022/06/05 05:52:12;;;;;;;10.70;7.80;;;20.50;99.90;;;21.15;nan;100459.41;4972574;28;21191;-67
2022/06/05 05:54:39;;;;;;;10.43;8.67;;;20.60;99.90;;;21.13;nan;100456.94;4971940;28;20673;-67
2022/06/05 05:57:08;;;;;;;10.30;8.50;;;20.60;99.90;;;21.11;nan;100456.31;4972783;28;20627;-67
2022/06/05 05:59:35;;;;;;;10.57;8.70;;;20.50;99.90;;;21.00;nan;100447.97;4971280;28;20643;-66
2022/06/05 06:02:06;;;;;;;12.13;8.93;;;20.40;99.90;;;20.94;nan;100438.88;4971261;28;20622;-68
2022/06/05 06:04:33;;;;;;;10.10;9.00;;;20.30;99.90;;;20.97;nan;100429.75;4970393;28;21235;-67
2022/06/05 06:07:00;;;;;;;13.00;10.67;;;20.40;99.90;;;20.94;nan;100409.72;4971108;28;20670;-67
2022/06/05 06:09:27;;;;;;;17.53;8.90;;;20.30;99.90;;;21.01;nan;100407.97;4963123;28;20648;-67
2022/06/05 06:11:54;;;;;;;8.90;7.10;;;20.40;99.90;;;21.05;nan;100395.19;4966858;28;20970;-66
2022/06/05 06:14:21;;;;;;;11.13;9.07;;;20.50;99.90;;;21.05;nan;100380.09;4970939;28;21313;-67
2022/06/05 06:16:50;;;;;;;12.30;9.97;;;20.50;99.90;;;21.03;nan;100374.16;4969830;28;20638;-67
2022/06/05 06:19:18;;;;;;;11.10;8.30;;;20.50;99.90;;;20.83;nan;100370.38;4970607;28;20662;-67
2022/06/05 06:21:45;;;;;;;12.47;9.77;;;20.30;99.90;;;20.85;nan;100371.00;4970166;28;20635;-67
2022/06/05 06:24:13;;;;;;;10.67;7.83;;;20.30;99.90;;;20.91;nan;100375.63;4967144;28;20651;-67
2022/06/05 06:26:41;;;;;;;15.07;9.93;;;20.40;99.90;;;21.08;nan;100389.53;4968331;28;21031;-67
2022/06/05 06:29:10;;;;;;;10.77;8.70;;;20.60;99.90;;;21.08;nan;100384.22;4959878;28;20672;-67
2022/06/05 06:31:38;;;;;;;12.60;9.53;;;20.60;99.90;;;21.05;nan;100385.41;4965840;28;20624;-68
2022/06/05 06:34:06;;;;;;;10.60;8.23;;;20.60;99.90;;;21.06;nan;100395.00;4952394;28;20628;-67
2022/06/05 06:36:34;;;;;;;11.97;9.67;;;20.60;99.90;;;21.09;nan;100397.31;4951105;28;20734;-67
2022/06/05 06:39:18;;;;;;;12.20;9.87;;;20.60;99.90;;;21.12;nan;100410.22;4966972;28;20975;-67
2022/06/05 06:41:46;;;;;;;11.50;8.37;;;20.60;99.90;;;21.16;nan;100392.91;4971543;28;20638;-68
2022/06/05 06:44:14;;;;;;;14.00;10.40;;;20.70;99.90;;;21.23;nan;100390.34;4957041;28;20639;-66
2022/06/05 06:46:41;;;;;;;12.43;9.30;;;20.70;99.90;;;21.27;nan;100386.31;4963072;28;20682;-67
2022/06/05 06:49:08;;;;;;;9.73;8.40;;;20.80;99.90;;;21.29;nan;100379.81;4967557;28;20667;-67
2022/06/05 06:51:35;;;;;;;12.37;10.00;;;20.80;99.90;;;21.32;nan;100382.09;4953870;28;20632;-67
2022/06/05 06:54:03;;;;;;;8.77;5.67;;;20.80;99.90;;;21.38;nan;100380.53;4968780;28;20631;-67
2022/06/05 06:56:33;;;;;;;11.60;9.83;;;20.90;99.90;;;21.42;nan;100377.31;4974134;28;20663;-68
2022/06/05 06:59:02;;;;;;;11.03;8.43;;;21.00;99.90;;;21.52;nan;100377.03;4963486;28;20647;-68
2022/06/05 07:01:30;;;;;;;12.20;10.13;;;21.00;99.90;;;21.58;nan;100371.78;4960067;28;20647;-68
2022/06/05 07:03:57;;;;;;;12.43;8.80;;;21.10;99.90;;;21.61;nan;100363.44;4961966;28;20634;-68
2022/06/05 07:06:24;;;;;;;10.37;9.00;;;21.10;99.90;;;21.83;nan;100356.34;4963237;28;20655;-67
2022/06/05 07:08:51;;;;;;;11.27;9.80;;;21.30;99.90;;;22.11;nan;100370.53;4973607;28;20676;-68
2022/06/05 07:11:19;;;;;;;11.43;8.70;;;21.60;99.90;;;22.34;nan;100373.78;4970317;28;20702;-67
2022/06/05 07:13:49;;;;;;;12.10;10.00;;;21.80;99.90;;;22.52;nan;100375.97;4969128;28;21194;-66
2022/06/05 07:16:18;;;;;;;11.97;10.10;;;22.00;99.90;;;22.64;nan;100373.63;4960179;28;20656;-67
2022/06/05 07:18:45;;;;;;;11.17;9.20;;;22.10;99.90;;;22.74;nan;100374.94;4955477;28;20690;-68
2022/06/05 07:21:17;;;;;;;12.47;9.57;;;22.20;99.90;;;22.80;nan;100371.50;4966918;28;20634;-68
2022/06/05 07:23:45;;;;;;;11.07;9.10;;;22.20;99.90;;;22.88;nan;100378.50;4957988;28;21038;-68
2022/06/05 07:26:17;;;;;;;10.60;9.37;;;22.30;99.90;;;22.74;nan;100379.44;4970804;28;21047;-68
2022/06/05 07:28:44;;;;;;;9.70;8.60;;;22.20;99.90;;;22.70;nan;100378.19;4974168;28;20675;-68
2022/06/05 07:31:12;;;;;;;11.03;8.83;;;22.10;99.90;;;22.63;nan;100356.03;4954930;28;20673;-69
2022/06/05 07:33:44;;;;;;;14.13;10.07;;;22.10;99.90;;;22.59;nan;100357.44;4954882;28;21166;-68
2022/06/05 07:36:16;;;;;;;10.37;8.80;;;22.00;99.90;;;22.49;nan;100352.41;4956353;28;21181;-68
2022/06/05 07:38:44;;;;;;;13.60;9.47;;;21.90;99.90;;;22.48;nan;100344.66;4966652;28;20638;-67
2022/06/05 07:41:20;;;;;;;11.20;9.80;;;21.90;99.90;;;22.51;nan;100355.69;4962108;28;20641;-68
2022/06/05 07:43:48;;;;;;;11.60;9.90;;;21.90;99.90;;;22.33;nan;100348.22;4969138;28;21195;-67
2022/06/05 07:46:19;;;;;;;13.00;11.60;;;21.80;99.90;;;22.40;nan;100343.75;4958642;28;20651;-67
2022/06/05 07:48:47;;;;;;;13.27;10.70;;;21.80;99.90;;;22.40;nan;100346.44;4963289;28;20670;-68
2022/06/05 07:56:53;;;;;;;13.50;10.70;;;21.60;99.90;;;22.27;nan;100321.59;4953498;29;20626;-67
2022/06/05 07:59:20;;;;;;;14.63;9.40;;;21.60;99.90;;;22.29;nan;100320.41;4953634;29;20636;-68
2022/06/05 08:02:04;;;;;;;11.00;9.20;;;21.70;99.90;;;22.36;nan;100323.06;4970007;28;20635;-68
2022/06/05 08:04:32;;;;;;;16.10;10.50;;;21.70;99.90;;;22.40;nan;100311.06;4973551;28;20626;-67
2022/06/05 08:07:00;;;;;;;11.57;9.60;;;21.80;99.90;;;22.44;nan;100311.50;4974016;28;20678;-66
2022/06/05 08:09:28;;;;;;;9.93;8.83;;;21.80;99.90;;;22.45;nan;100313.94;4970534;28;20682;-67
2022/06/05 08:11:57;;;;;;;11.43;8.90;;;21.80;99.90;;;22.46;nan;100320.91;4955264;28;20643;-67
2022/06/05 08:14:24;;;;;;;10.67;8.67;;;21.80;99.90;;;22.49;nan;100320.50;4953872;28;20640;-70
2022/06/05 08:16:51;;;;;;;13.60;9.73;;;21.90;99.90;;;22.54;nan;100327.91;4953572;28;20643;-70
2022/06/05 08:19:21;;;;;;;13.47;10.50;;;21.90;99.90;;;22.54;nan;100339.38;4967149;28;21020;-68
2022/06/05 08:21:51;;;;;;;15.47;10.93;;;21.90;99.90;;;22.61;nan;100327.00;4960484;28;20636;-67
2022/06/05 08:24:21;;;;;;;15.67;9.30;;;22.00;99.90;;;22.67;nan;100331.53;4958554;28;20679;-69
2022/06/05 08:26:50;;;;;;;15.80;9.47;;;22.10;99.90;;;22.68;nan;100330.50;4955557;28;20636;-69
2022/06/05 08:29:19;;;;;;;10.80;9.17;;;22.10;99.90;;;22.75;nan;100333.19;4958502;28;21079;-69
2022/06/05 08:31:46;;;;;;;12.40;9.13;;;22.10;99.90;;;22.69;nan;100336.63;4960940;28;20619;-69
2022/06/05 08:34:14;;;;;;;12.37;9.07;;;22.10;99.90;;;22.71;nan;100340.75;4956455;28;20619;-69
2022/06/05 08:36:42;;;;;;;10.30;9.20;;;22.10;99.90;;;22.70;nan;100347.06;4972767;28;20663;-69
2022/06/05 08:42:26;;;;;;;12.00;9.20;;;22.20;99.90;;;22.83;nan;100341.84;4971973;28;21239;-68
2022/06/05 08:45:17;;;;;;;14.70;9.00;;;22.20;99.90;;;22.96;nan;100349.06;4960780;28;20686;-68
2022/06/05 08:47:59;;;;;;;8.53;7.67;;;22.40;99.90;;;23.11;nan;100350.59;4953083;28;21221;-69
2022/06/05 08:50:26;;;;;;;9.80;8.70;;;22.50;99.90;;;23.24;nan;100352.47;4951558;29;20628;-69
2022/06/05 08:53:23;;;;;;;10.07;8.53;;;22.70;99.90;;;23.43;nan;100358.91;4952868;29;20632;-69
2022/06/05 08:55:53;;;;;;;9.50;8.17;;;22.90;99.90;;;23.58;nan;100362.25;4946810;28;21008;-69
2022/06/05 08:58:31;;;;;;;10.53;8.47;;;23.10;99.90;;;23.87;nan;100354.72;4970633;28;21215;-68
2022/06/05 09:01:06;;;;;;;10.77;8.20;;;23.40;99.90;;;23.95;nan;100360.91;4971011;28;20633;-68
2022/06/05 09:04:12;;;;;;;7.60;6.87;;;23.40;99.90;;;24.16;nan;100369.56;4971134;28;20615;-69
2022/06/05 09:06:45;;;;;;;10.03;8.43;;;23.70;99.90;;;24.40;nan;100376.13;4969420;28;20659;-67
2022/06/05 09:09:21;;;;;;;10.33;8.50;;;23.90;99.90;;;24.83;nan;100374.66;4954639;28;20710;-68
2022/06/05 09:12:29;;;;;;;10.13;7.90;;;24.40;99.90;;;25.34;nan;100385.41;4965309;28;20994;-68
2022/06/05 09:15:25;;;;;;;11.43;10.07;;;24.80;99.90;;;25.83;nan;100387.47;4963193;28;24894;-67
2022/06/05 09:17:59;;;;;;;9.00;8.07;;;25.50;99.90;;;26.32;nan;100392.91;4971409;28;20593;-68
2022/06/05 09:20:40;;;;;;;7.83;7.10;;;26.00;99.90;;;27.03;nan;100395.94;4970483;28;20623;-68
2022/06/05 09:23:24;;;;;;;8.43;7.57;;;26.60;99.90;;;28.28;nan;100397.84;4972895;28;21017;-68
2022/06/05 09:26:02;;;;;;;7.83;7.00;;;27.90;99.90;;;29.45;nan;100404.81;4951845;29;20723;-68
2022/06/05 09:29:08;;;;;;;9.27;8.37;;;29.20;98.10;;;29.80;nan;100397.44;4951256;28;21076;-68
2022/06/05 09:32:09;;;;;;;8.20;7.27;;;29.40;96.30;;;30.28;nan;100392.38;4971895;28;21000;-67
2022/06/05 09:34:59;;;;;;;7.47;6.70;;;29.80;94.70;;;29.19;nan;100381.16;4969419;28;21180;-68
2022/06/05 09:37:48;;;;;;;8.97;8.10;;;29.00;94.50;;;30.09;nan;100379.41;4956546;28;20655;-68
2022/06/05 09:40:21;;;;;;;8.33;7.40;;;29.80;93.70;;;29.99;nan;100374.66;4950793;29;20983;-68
2022/06/05 09:43:39;;;;;;;8.03;7.37;;;29.50;93.50;;;32.69;nan;100370.13;4954786;28;20647;-68
2022/06/05 09:46:22;;;;;;;7.00;6.40;;;31.90;90.90;;;34.74;nan;100367.34;4961011;28;20667;-68
2022/06/05 09:48:57;;;;;;;8.07;7.37;;;34.50;82.30;;;35.63;nan;100362.66;4964024;28;20688;-67
2022/06/05 09:51:25;;;;;;;7.33;6.73;;;35.30;75.10;;;36.93;nan;100362.63;4960422;28;20641;-68
2022/06/05 09:54:17;;;;;;;9.00;8.10;;;36.60;71.30;;;38.24;nan;100358.06;4961160;28;20628;-68
2022/06/05 10:00:18;;;;;;;7.67;7.07;;;39.20;61.40;;;39.80;nan;100345.88;4971120;28;21208;-68
2022/06/05 10:02:49;;;;;;;8.50;7.80;;;39.60;57.70;;;40.86;nan;100344.72;4970971;28;20619;-68
2022/06/05 10:05:34;;;;;;;9.03;8.20;;;40.60;55.50;;;41.35;nan;100331.78;4970607;28;20716;-67
2022/06/05 10:08:22;;;;;;;9.60;8.70;;;41.20;54.10;;;39.36;nan;100333.75;4964297;28;20717;-69
2022/06/05 10:10:56;;;;;;;9.20;8.30;;;39.70;54.50;;;39.10;nan;100340.84;4949133;28;21210;-68
2022/06/05 10:13:50;;;;;;;8.87;7.97;;;39.00;55.10;;;36.88;nan;100346.41;4958440;28;20639;-68
2022/06/05 10:16:49;;;;;;;10.60;9.53;;;36.90;57.20;;;35.68;nan;100331.97;4961066;28;20671;-70
2022/06/05 10:19:58;;;;;;;11.83;10.63;;;35.30;60.20;;;35.04;nan;100324.72;4963235;28;20623;-68
2022/06/05 10:23:24;;;;;;;12.60;11.30;;;34.60;61.60;;;33.77;nan;100327.88;4969086;28;20661;-70
2022/06/05 10:26:15;;;;;;;10.00;9.10;;;33.50;63.40;;;32.26;nan;100324.47;4994827;23;20691;-67
2022/06/05 10:28:44;;;;;;;10.30;9.30;;;31.80;66.70;;;30.31;nan;100329.19;4973878;28;20659;-67
2022/06/05 10:31:24;;;;;;;13.57;11.27;;;29.90;71.50;;;29.13;nan;100339.91;4974698;28;20619;-66
2022/06/05 10:34:10;;;;;;;13.10;11.77;;;28.60;74.90;;;28.23;nan;100336.00;4973618;28;21199;-63
2022/06/05 10:36:59;;;;;;;12.97;11.53;;;27.50;78.50;;;27.76;nan;100336.91;4949324;28;20664;-61
2022/06/05 10:39:53;;;;;;;33.43;24.47;;;27.00;81.90;;;27.51;nan;100337.88;4935944;29;20633;-62
2022/06/05 10:42:51;;;;;;;14.80;12.70;;;26.90;84.20;;;27.60;nan;100323.13;4950534;28;21187;-64
2022/06/05 10:45:57;;;;;;;15.10;12.47;;;26.80;85.70;;;27.73;nan;100321.31;4936341;28;20661;-64
2022/06/05 10:48:42;;;;;;;13.43;11.93;;;27.00;87.30;;;27.62;nan;100325.59;4955822;28;21096;-64
2022/06/05 10:51:27;;;;;;;16.30;11.60;;;27.00;89.00;;;27.72;nan;100328.53;4949818;28;20620;-65
2022/06/05 10:54:19;;;;;;;13.13;10.70;;;27.00;90.20;;;27.43;nan;100315.97;4956047;28;20628;-64
2022/06/05 10:57:08;;;;;;;21.70;16.83;;;26.90;90.80;;;27.92;nan;100312.16;4954102;28;20660;-64
2022/06/05 10:59:59;;;;;;;11.23;9.70;;;27.30;91.50;;;28.31;nan;100319.53;4941792;28;20640;-66
2022/06/05 11:02:50;;;;;;;13.23;11.00;;;27.70;91.10;;;27.88;nan;100308.25;4954332;28;20644;-64
2022/06/05 11:06:14;;;;;;;13.43;11.27;;;27.40;91.30;;;27.94;nan;100310.84;4955004;28;20668;-64
2022/06/05 11:08:55;;;;;;;15.97;9.90;;;27.30;91.70;;;27.64;nan;100312.78;4944465;28;20678;-65
2022/06/05 11:15:05;;;;;;;12.57;8.40;;;26.80;92.10;;;27.01;nan;100315.03;4951969;28;20639;-65
2022/06/05 11:17:52;;;;;;;10.23;8.63;;;26.40;93.40;;;26.70;nan;100317.81;4954855;28;20632;-65
2022/06/05 11:20:23;;;;;;;11.23;9.37;;;26.00;94.70;;;26.18;nan;100308.44;4953760;28;20647;-66
2022/06/05 11:23:03;;;;;;;;;;;25.50;96.00;;;25.51;nan;100303.78;4953677;28;20501;-65
2022/06/05 11:25:46;;;;;;;9.80;8.57;;;24.80;98.10;;;25.41;nan;100300.72;4968621;28;20221;-67